sensor_id;sensor_type;location;lat;lon;timestamp;temperature;humidity
67186;HTU21D;54116;53.518;49.398;2023-09-19T00:00:20;-7.00;118.99
67186;HTU21D;54116;53.518;49.398;2023-09-19T00:02:54;-7.05;118.99
67186;HTU21D;54116;53.518;49.398;2023-09-19T00:05:29;-7.07;118.99
67186;HTU21D;54116;53.518;49.398;2023-09-19T00:07:57;-7.05;118.99
67186;HTU21D;54116;53.518;49.398;2023-09-19T00:10:28;-7.06;118.99
67186;HTU21D;54116;53.518;49.398;2023-09-19T00:12:58;-7.05;118.99
67186;HTU21D;54116;53.518;49.398;2023-09-19T00:15:36;-7.02;118.99
67186;HTU21D;54116;53.518;49.398;2023-09-19T00:18:03;-6.91;118.99
67186;HTU21D;54116;53.518;49.398;2023-09-19T00:20:36;-6.94;118.99
67186;HTU21D;54116;53.518;49.398;2023-09-19T00:23:03;-7.01;118.99
67186;HTU21D;54116;53.518;49.398;2023-09-19T00:25:30;-6.96;118.99
67186;HTU21D;54116;53.518;49.398;2023-09-19T00:27:58;-6.94;118.99
67186;HTU21D;54116;53.518;49.398;2023-09-19T00:30:24;-6.94;118.99
67186;HTU21D;54116;53.518;49.398;2023-09-19T00:32:51;-7.00;118.99
67186;HTU21D;54116;53.518;49.398;2023-09-19T00:35:21;-7.05;118.99
67186;HTU21D;54116;53.518;49.398;2023-09-19T00:37:52;-7.05;118.99
67186;HTU21D;54116;53.518;49.398;2023-09-19T00:40:18;-7.11;118.99
67186;HTU21D;54116;53.518;49.398;2023-09-19T00:42:46;-7.09;118.99
67186;HTU21D;54116;53.518;49.398;2023-09-19T00:45:14;-7.10;118.99
67186;HTU21D;54116;53.518;49.398;2023-09-19T00:47:47;-7.07;118.99
67186;HTU21D;54116;53.518;49.398;2023-09-19T00:50:19;-7.08;118.99
67186;HTU21D;54116;53.518;49.398;2023-09-19T00:52:53;-7.09;118.99
67186;HTU21D;54116;53.518;49.398;2023-09-19T00:55:21;-7.06;118.99
67186;HTU21D;54116;53.518;49.398;2023-09-19T00:57:49;-7.09;118.99
67186;HTU21D;54116;53.518;49.398;2023-09-19T01:00:15;-7.03;118.99
67186;HTU21D;54116;53.518;49.398;2023-09-19T01:02:45;-7.07;118.99
67186;HTU21D;54116;53.518;49.398;2023-09-19T01:05:11;-7.06;118.99
67186;HTU21D;54116;53.518;49.398;2023-09-19T01:07:41;-6.94;118.99
67186;HTU21D;54116;53.518;49.398;2023-09-19T01:10:15;-6.94;118.99
67186;HTU21D;54116;53.518;49.398;2023-09-19T01:13:01;-6.97;118.99
67186;HTU21D;54116;53.518;49.398;2023-09-19T01:27:23;-7.11;118.99
67186;HTU21D;54116;53.518;49.398;2023-09-19T01:29:52;-7.11;118.99
67186;HTU21D;54116;53.518;49.398;2023-09-19T01:32:21;-7.18;118.99
67186;HTU21D;54116;53.518;49.398;2023-09-19T01:34:55;-7.17;118.99
67186;HTU21D;54116;53.518;49.398;2023-09-19T01:37:30;-7.17;118.99
67186;HTU21D;54116;53.518;49.398;2023-09-19T01:40:08;-7.15;118.99
67186;HTU21D;54116;53.518;49.398;2023-09-19T01:51:10;-7.09;118.99
67186;HTU21D;54116;53.518;49.398;2023-09-19T01:53:45;-7.01;118.99
67186;HTU21D;54116;53.518;49.398;2023-09-19T01:56:25;-6.95;118.99
67186;HTU21D;54116;53.518;49.398;2023-09-19T01:58:56;-6.96;118.99
67186;HTU21D;54116;53.518;49.398;2023-09-19T02:01:25;-7.05;118.99
67186;HTU21D;54116;53.518;49.398;2023-09-19T02:03:53;-7.06;118.99
67186;HTU21D;54116;53.518;49.398;2023-09-19T02:06:20;-7.15;118.99
67186;HTU21D;54116;53.518;49.398;2023-09-19T02:08:47;-7.20;118.99
67186;HTU21D;54116;53.518;49.398;2023-09-19T02:11:13;-7.15;118.99
67186;HTU21D;54116;53.518;49.398;2023-09-19T02:13:40;-7.25;118.99
67186;HTU21D;54116;53.518;49.398;2023-09-19T02:16:07;-7.20;118.99
67186;HTU21D;54116;53.518;49.398;2023-09-19T02:18:35;-7.17;118.99
67186;HTU21D;54116;53.518;49.398;2023-09-19T02:21:02;-7.18;118.99
67186;HTU21D;54116;53.518;49.398;2023-09-19T02:23:30;-7.15;118.99
67186;HTU21D;54116;53.518;49.398;2023-09-19T02:25:56;-7.06;118.99
67186;HTU21D;54116;53.518;49.398;2023-09-19T02:28:32;-7.08;118.99
67186;HTU21D;54116;53.518;49.398;2023-09-19T02:30:58;-7.12;118.99
67186;HTU21D;54116;53.518;49.398;2023-09-19T02:33:25;-7.11;118.99
67186;HTU21D;54116;53.518;49.398;2023-09-19T02:35:55;-7.12;118.99
67186;HTU21D;54116;53.518;49.398;2023-09-19T02:38:25;-7.11;118.99
67186;HTU21D;54116;53.518;49.398;2023-09-19T02:40:52;-7.03;118.99
67186;HTU21D;54116;53.518;49.398;2023-09-19T02:43:19;-7.06;118.99
67186;HTU21D;54116;53.518;49.398;2023-09-19T02:45:46;-7.09;118.99
67186;HTU21D;54116;53.518;49.398;2023-09-19T02:48:23;-7.07;118.99
67186;HTU21D;54116;53.518;49.398;2023-09-19T02:50:51;-7.05;118.99
67186;HTU21D;54116;53.518;49.398;2023-09-19T02:53:17;-7.01;118.99
67186;HTU21D;54116;53.518;49.398;2023-09-19T02:55:45;-6.97;118.99
67186;HTU21D;54116;53.518;49.398;2023-09-19T02:58:12;-6.85;118.99
67186;HTU21D;54116;53.518;49.398;2023-09-19T03:00:41;-6.58;118.99
67186;HTU21D;54116;53.518;49.398;2023-09-19T03:03:13;-6.45;118.99
67186;HTU21D;54116;53.518;49.398;2023-09-19T03:05:42;-6.43;118.99
67186;HTU21D;54116;53.518;49.398;2023-09-19T03:08:13;-6.29;118.99
67186;HTU21D;54116;53.518;49.398;2023-09-19T03:10:44;-6.07;118.99
67186;HTU21D;54116;53.518;49.398;2023-09-19T03:13:12;-5.96;118.99
67186;HTU21D;54116;53.518;49.398;2023-09-19T03:15:44;-5.81;118.99
67186;HTU21D;54116;53.518;49.398;2023-09-19T03:18:13;-5.68;118.99
67186;HTU21D;54116;53.518;49.398;2023-09-19T03:20:39;-5.57;118.99
67186;HTU21D;54116;53.518;49.398;2023-09-19T03:23:05;-5.42;118.99
67186;HTU21D;54116;53.518;49.398;2023-09-19T03:25:34;-5.31;118.99
67186;HTU21D;54116;53.518;49.398;2023-09-19T03:28:02;-5.15;118.99
67186;HTU21D;54116;53.518;49.398;2023-09-19T03:30:32;-5.14;118.99
67186;HTU21D;54116;53.518;49.398;2023-09-19T03:32:59;-5.10;118.99
67186;HTU21D;54116;53.518;49.398;2023-09-19T03:35:26;-5.04;118.99
67186;HTU21D;54116;53.518;49.398;2023-09-19T03:37:52;-5.03;118.99
67186;HTU21D;54116;53.518;49.398;2023-09-19T03:40:19;-4.94;118.99
67186;HTU21D;54116;53.518;49.398;2023-09-19T03:42:46;-4.89;118.99
67186;HTU21D;54116;53.518;49.398;2023-09-19T03:45:14;-4.80;118.99
67186;HTU21D;54116;53.518;49.398;2023-09-19T03:47:41;-4.72;118.99
67186;HTU21D;54116;53.518;49.398;2023-09-19T03:50:08;-4.61;118.99
67186;HTU21D;54116;53.518;49.398;2023-09-19T03:52:36;-4.57;118.99
67186;HTU21D;54116;53.518;49.398;2023-09-19T03:55:03;-4.54;118.99
67186;HTU21D;54116;53.518;49.398;2023-09-19T03:57:30;-4.55;118.99
67186;HTU21D;54116;53.518;49.398;2023-09-19T03:59:56;-4.54;118.99
67186;HTU21D;54116;53.518;49.398;2023-09-19T04:02:23;-4.52;118.99
67186;HTU21D;54116;53.518;49.398;2023-09-19T04:04:51;-4.57;118.99
67186;HTU21D;54116;53.518;49.398;2023-09-19T04:07:17;-4.55;118.99
67186;HTU21D;54116;53.518;49.398;2023-09-19T04:09:45;-4.58;118.99
67186;HTU21D;54116;53.518;49.398;2023-09-19T04:12:11;-4.57;118.99
67186;HTU21D;54116;53.518;49.398;2023-09-19T04:14:38;-4.64;118.99
67186;HTU21D;54116;53.518;49.398;2023-09-19T04:17:04;-4.58;118.99
67186;HTU21D;54116;53.518;49.398;2023-09-19T04:19:31;-4.61;118.99
67186;HTU21D;54116;53.518;49.398;2023-09-19T04:21:57;-4.34;118.99
67186;HTU21D;54116;53.518;49.398;2023-09-19T04:24:23;-2.75;118.99
67186;HTU21D;54116;53.518;49.398;2023-09-19T04:26:49;-1.72;118.99
67186;HTU21D;54116;53.518;49.398;2023-09-19T04:29:15;-1.67;118.99
67186;HTU21D;54116;53.518;49.398;2023-09-19T04:31:41;-0.94;118.99
67186;HTU21D;54116;53.518;49.398;2023-09-19T04:34:09;-1.89;118.99
67186;HTU21D;54116;53.518;49.398;2023-09-19T04:36:35;-2.72;118.99
67186;HTU21D;54116;53.518;49.398;2023-09-19T04:39:03;-2.95;118.99
67186;HTU21D;54116;53.518;49.398;2023-09-19T04:41:33;-2.93;118.99
67186;HTU21D;54116;53.518;49.398;2023-09-19T04:44:00;-1.89;118.99
67186;HTU21D;54116;53.518;49.398;2023-09-19T04:46:26;-1.08;118.99
67186;HTU21D;54116;53.518;49.398;2023-09-19T04:48:53;-1.60;118.99
67186;HTU21D;54116;53.518;49.398;2023-09-19T04:51:19;-2.53;118.99
67186;HTU21D;54116;53.518;49.398;2023-09-19T04:53:46;-2.41;118.99
67186;HTU21D;54116;53.518;49.398;2023-09-19T04:56:13;-1.01;118.99
67186;HTU21D;54116;53.518;49.398;2023-09-19T04:58:41;0.06;118.99
67186;HTU21D;54116;53.518;49.398;2023-09-19T05:01:07;0.01;118.99
67186;HTU21D;54116;53.518;49.398;2023-09-19T05:03:37;-1.15;118.99
67186;HTU21D;54116;53.518;49.398;2023-09-19T05:06:04;-1.80;118.99
67186;HTU21D;54116;53.518;49.398;2023-09-19T05:08:31;-2.36;118.99
67186;HTU21D;54116;53.518;49.398;2023-09-19T05:10:57;-2.77;118.99
67186;HTU21D;54116;53.518;49.398;2023-09-19T05:13:24;-2.66;118.99
67186;HTU21D;54116;53.518;49.398;2023-09-19T05:15:50;-2.49;118.99
67186;HTU21D;54116;53.518;49.398;2023-09-19T05:18:17;-2.33;118.99
67186;HTU21D;54116;53.518;49.398;2023-09-19T05:20:43;-1.83;118.99
67186;HTU21D;54116;53.518;49.398;2023-09-19T05:23:09;-1.72;118.99
67186;HTU21D;54116;53.518;49.398;2023-09-19T05:25:39;-1.80;118.99
67186;HTU21D;54116;53.518;49.398;2023-09-19T05:28:07;-2.32;118.99
67186;HTU21D;54116;53.518;49.398;2023-09-19T05:30:35;-2.63;118.99
67186;HTU21D;54116;53.518;49.398;2023-09-19T05:33:05;-2.87;118.99
67186;HTU21D;54116;53.518;49.398;2023-09-19T05:35:32;-2.77;118.99
67186;HTU21D;54116;53.518;49.398;2023-09-19T05:37:58;-2.24;118.99
67186;HTU21D;54116;53.518;49.398;2023-09-19T05:40:25;-1.06;118.99
67186;HTU21D;54116;53.518;49.398;2023-09-19T05:42:52;-1.23;118.99
67186;HTU21D;54116;53.518;49.398;2023-09-19T05:45:18;-1.64;118.99
67186;HTU21D;54116;53.518;49.398;2023-09-19T05:47:52;-2.18;118.99
67186;HTU21D;54116;53.518;49.398;2023-09-19T05:50:21;-2.47;118.99
67186;HTU21D;54116;53.518;49.398;2023-09-19T05:52:52;-2.34;118.99
67186;HTU21D;54116;53.518;49.398;2023-09-19T05:55:19;-2.02;118.99
67186;HTU21D;54116;53.518;49.398;2023-09-19T05:57:50;-1.93;118.99
67186;HTU21D;54116;53.518;49.398;2023-09-19T06:00:19;-2.10;118.99
67186;HTU21D;54116;53.518;49.398;2023-09-19T06:02:54;-2.31;118.99
67186;HTU21D;54116;53.518;49.398;2023-09-19T06:05:21;-2.38;118.99
67186;HTU21D;54116;53.518;49.398;2023-09-19T06:07:47;-2.06;118.99
67186;HTU21D;54116;53.518;49.398;2023-09-19T06:10:14;-0.97;118.99
67186;HTU21D;54116;53.518;49.398;2023-09-19T06:12:41;-0.35;118.99
67186;HTU21D;54116;53.518;49.398;2023-09-19T06:15:12;-0.40;118.99
67186;HTU21D;54116;53.518;49.398;2023-09-19T06:17:42;-1.02;118.99
67186;HTU21D;54116;53.518;49.398;2023-09-19T06:20:09;-1.45;118.99
67186;HTU21D;54116;53.518;49.398;2023-09-19T06:22:45;-1.32;118.99
67186;HTU21D;54116;53.518;49.398;2023-09-19T06:25:13;-1.12;118.99
67186;HTU21D;54116;53.518;49.398;2023-09-19T06:27:52;-0.49;118.99
67186;HTU21D;54116;53.518;49.398;2023-09-19T06:30:20;-0.69;118.99
67186;HTU21D;54116;53.518;49.398;2023-09-19T06:32:46;-0.82;118.99
67186;HTU21D;54116;53.518;49.398;2023-09-19T06:35:14;-1.05;118.99
67186;HTU21D;54116;53.518;49.398;2023-09-19T06:37:41;-1.32;118.99
67186;HTU21D;54116;53.518;49.398;2023-09-19T06:40:11;-1.29;118.99
67186;HTU21D;54116;53.518;49.398;2023-09-19T06:42:42;-1.47;118.99
67186;HTU21D;54116;53.518;49.398;2023-09-19T06:45:10;-1.92;118.99
67186;HTU21D;54116;53.518;49.398;2023-09-19T06:47:46;-2.20;118.99
67186;HTU21D;54116;53.518;49.398;2023-09-19T06:50:16;-2.26;118.99
67186;HTU21D;54116;53.518;49.398;2023-09-19T06:52:45;-2.07;118.99
67186;HTU21D;54116;53.518;49.398;2023-09-19T06:55:14;-2.16;118.99
67186;HTU21D;54116;53.518;49.398;2023-09-19T06:57:42;-1.84;118.99
67186;HTU21D;54116;53.518;49.398;2023-09-19T07:00:13;-1.71;118.99
67186;HTU21D;54116;53.518;49.398;2023-09-19T07:03:01;-1.82;118.99
67186;HTU21D;54116;53.518;49.398;2023-09-19T07:05:30;-1.83;118.99
67186;HTU21D;54116;53.518;49.398;2023-09-19T07:07:57;-1.90;118.99
67186;HTU21D;54116;53.518;49.398;2023-09-19T07:10:25;-2.06;118.99
67186;HTU21D;54116;53.518;49.398;2023-09-19T07:12:55;-2.03;118.99
67186;HTU21D;54116;53.518;49.398;2023-09-19T07:15:22;-1.82;118.99
67186;HTU21D;54116;53.518;49.398;2023-09-19T07:17:54;-1.72;118.99
67186;HTU21D;54116;53.518;49.398;2023-09-19T07:20:23;-1.64;118.99
67186;HTU21D;54116;53.518;49.398;2023-09-19T07:22:52;-1.60;118.99
67186;HTU21D;54116;53.518;49.398;2023-09-19T07:25:21;-1.70;118.99
67186;HTU21D;54116;53.518;49.398;2023-09-19T07:27:47;-1.54;118.99
67186;HTU21D;54116;53.518;49.398;2023-09-19T07:30:13;-1.46;118.99
67186;HTU21D;54116;53.518;49.398;2023-09-19T07:32:40;-1.62;118.99
67186;HTU21D;54116;53.518;49.398;2023-09-19T07:35:07;-1.50;118.99
67186;HTU21D;54116;53.518;49.398;2023-09-19T07:37:33;-1.58;118.99
67186;HTU21D;54116;53.518;49.398;2023-09-19T07:40:00;-1.42;118.99
67186;HTU21D;54116;53.518;49.398;2023-09-19T07:42:27;-1.49;118.99
67186;HTU21D;54116;53.518;49.398;2023-09-19T07:44:53;-1.43;118.99
67186;HTU21D;54116;53.518;49.398;2023-09-19T07:47:21;-1.40;118.99
67186;HTU21D;54116;53.518;49.398;2023-09-19T07:49:48;-1.35;118.99
67186;HTU21D;54116;53.518;49.398;2023-09-19T07:52:14;-1.41;118.99
67186;HTU21D;54116;53.518;49.398;2023-09-19T07:54:41;-1.67;118.99
67186;HTU21D;54116;53.518;49.398;2023-09-19T07:57:10;-1.42;118.99
67186;HTU21D;54116;53.518;49.398;2023-09-19T07:59:37;-1.33;118.99
67186;HTU21D;54116;53.518;49.398;2023-09-19T08:02:05;-1.57;118.99
67186;HTU21D;54116;53.518;49.398;2023-09-19T08:04:31;-1.76;118.99
67186;HTU21D;54116;53.518;49.398;2023-09-19T08:06:59;-1.82;118.99
67186;HTU21D;54116;53.518;49.398;2023-09-19T08:09:29;-1.82;118.99
67186;HTU21D;54116;53.518;49.398;2023-09-19T08:11:59;-1.77;118.99
67186;HTU21D;54116;53.518;49.398;2023-09-19T08:14:28;-1.68;118.99
67186;HTU21D;54116;53.518;49.398;2023-09-19T08:16:58;-1.48;118.99
67186;HTU21D;54116;53.518;49.398;2023-09-19T08:19:25;-1.46;118.99
67186;HTU21D;54116;53.518;49.398;2023-09-19T08:21:57;-1.40;118.99
67186;HTU21D;54116;53.518;49.398;2023-09-19T08:24:30;-1.16;118.99
67186;HTU21D;54116;53.518;49.398;2023-09-19T08:26:57;-1.23;118.99
67186;HTU21D;54116;53.518;49.398;2023-09-19T08:29:24;-1.59;118.99
67186;HTU21D;54116;53.518;49.398;2023-09-19T08:31:54;-1.68;118.99
67186;HTU21D;54116;53.518;49.398;2023-09-19T08:34:24;-1.49;118.99
67186;HTU21D;54116;53.518;49.398;2023-09-19T08:36:53;-1.56;118.99
67186;HTU21D;54116;53.518;49.398;2023-09-19T08:39:24;-1.71;118.99
67186;HTU21D;54116;53.518;49.398;2023-09-19T08:42:00;-1.92;118.99
67186;HTU21D;54116;53.518;49.398;2023-09-19T08:44:27;-1.84;118.99
67186;HTU21D;54116;53.518;49.398;2023-09-19T08:47:08;-1.49;118.99
67186;HTU21D;54116;53.518;49.398;2023-09-19T08:50:00;-1.39;118.99
67186;HTU21D;54116;53.518;49.398;2023-09-19T08:52:38;-1.40;118.99
67186;HTU21D;54116;53.518;49.398;2023-09-19T08:55:07;-1.26;118.99
67186;HTU21D;54116;53.518;49.398;2023-09-19T08:57:36;-1.03;118.99
67186;HTU21D;54116;53.518;49.398;2023-09-19T09:00:08;-1.20;118.99
67186;HTU21D;54116;53.518;49.398;2023-09-19T09:02:38;-1.14;118.99
67186;HTU21D;54116;53.518;49.398;2023-09-19T09:05:08;-1.38;118.99
67186;HTU21D;54116;53.518;49.398;2023-09-19T09:07:37;-1.60;118.99
67186;HTU21D;54116;53.518;49.398;2023-09-19T09:10:04;-1.35;118.99
67186;HTU21D;54116;53.518;49.398;2023-09-19T09:12:35;-1.39;118.99
67186;HTU21D;54116;53.518;49.398;2023-09-19T09:15:03;-1.44;118.99
67186;HTU21D;54116;53.518;49.398;2023-09-19T09:17:33;-1.62;118.99
67186;HTU21D;54116;53.518;49.398;2023-09-19T09:20:00;-1.68;118.99
67186;HTU21D;54116;53.518;49.398;2023-09-19T09:22:27;-1.80;118.99
67186;HTU21D;54116;53.518;49.398;2023-09-19T09:24:55;-1.89;118.99
67186;HTU21D;54116;53.518;49.398;2023-09-19T09:27:25;-1.88;118.99
67186;HTU21D;54116;53.518;49.398;2023-09-19T09:29:53;-2.02;118.99
67186;HTU21D;54116;53.518;49.398;2023-09-19T09:32:31;-1.79;118.99
67186;HTU21D;54116;53.518;49.398;2023-09-19T09:35:02;-1.47;118.99
67186;HTU21D;54116;53.518;49.398;2023-09-19T09:37:35;-1.68;118.99
67186;HTU21D;54116;53.518;49.398;2023-09-19T09:40:05;-1.73;118.99
67186;HTU21D;54116;53.518;49.398;2023-09-19T09:42:41;-1.62;118.99
67186;HTU21D;54116;53.518;49.398;2023-09-19T09:45:30;-1.58;118.99
67186;HTU21D;54116;53.518;49.398;2023-09-19T09:48:00;-1.41;118.99
67186;HTU21D;54116;53.518;49.398;2023-09-19T09:50:46;-1.63;118.99
67186;HTU21D;54116;53.518;49.398;2023-09-19T09:53:27;-1.67;118.99
67186;HTU21D;54116;53.518;49.398;2023-09-19T09:58:37;-1.97;118.99
67186;HTU21D;54116;53.518;49.398;2023-09-19T10:01:09;-1.95;118.99
67186;HTU21D;54116;53.518;49.398;2023-09-19T10:03:39;-1.99;118.99
67186;HTU21D;54116;53.518;49.398;2023-09-19T10:06:08;-1.94;118.99
67186;HTU21D;54116;53.518;49.398;2023-09-19T10:09:06;-1.97;118.99
67186;HTU21D;54116;53.518;49.398;2023-09-19T10:11:45;-1.86;118.99
67186;HTU21D;54116;53.518;49.398;2023-09-19T10:14:13;-1.75;118.99
67186;HTU21D;54116;53.518;49.398;2023-09-19T10:16:51;-1.78;118.99
67186;HTU21D;54116;53.518;49.398;2023-09-19T10:19:37;-1.95;118.99
67186;HTU21D;54116;53.518;49.398;2023-09-19T10:22:05;-2.00;118.99
67186;HTU21D;54116;53.518;49.398;2023-09-19T10:24:38;-1.87;118.99
67186;HTU21D;54116;53.518;49.398;2023-09-19T10:27:06;-1.75;118.99
67186;HTU21D;54116;53.518;49.398;2023-09-19T10:29:39;-1.47;118.99
67186;HTU21D;54116;53.518;49.398;2023-09-19T10:32:09;-1.50;118.99
67186;HTU21D;54116;53.518;49.398;2023-09-19T10:34:49;-1.50;118.99
67186;HTU21D;54116;53.518;49.398;2023-09-19T10:37:16;-1.59;118.99
67186;HTU21D;54116;53.518;49.398;2023-09-19T10:39:53;-1.76;118.99
67186;HTU21D;54116;53.518;49.398;2023-09-19T10:42:25;-1.82;118.99
67186;HTU21D;54116;53.518;49.398;2023-09-19T10:44:58;-1.88;118.99
67186;HTU21D;54116;53.518;49.398;2023-09-19T10:47:44;-2.05;118.99
67186;HTU21D;54116;53.518;49.398;2023-09-19T10:50:24;-2.17;118.99
67186;HTU21D;54116;53.518;49.398;2023-09-19T10:52:56;-2.04;118.99
67186;HTU21D;54116;53.518;49.398;2023-09-19T10:55:33;-1.74;118.99
67186;HTU21D;54116;53.518;49.398;2023-09-19T10:58:12;-1.84;118.99
67186;HTU21D;54116;53.518;49.398;2023-09-19T11:00:55;-1.80;118.99
67186;HTU21D;54116;53.518;49.398;2023-09-19T11:03:33;-1.67;118.99
67186;HTU21D;54116;53.518;49.398;2023-09-19T11:06:19;-1.49;118.99
67186;HTU21D;54116;53.518;49.398;2023-09-19T11:09:06;-1.43;118.99
67186;HTU21D;54116;53.518;49.398;2023-09-19T11:11:40;-1.34;118.99
67186;HTU21D;54116;53.518;49.398;2023-09-19T11:14:37;-1.30;118.99
67186;HTU21D;54116;53.518;49.398;2023-09-19T11:30:47;-1.90;118.99
67186;HTU21D;54116;53.518;49.398;2023-09-19T11:36:14;-1.25;118.99
67186;HTU21D;54116;53.518;49.398;2023-09-19T11:49:33;-1.25;118.99
67186;HTU21D;54116;53.518;49.398;2023-09-19T11:52:01;-1.36;118.99
67186;HTU21D;54116;53.518;49.398;2023-09-19T11:54:33;-1.44;118.99
67186;HTU21D;54116;53.518;49.398;2023-09-19T11:57:02;-1.53;118.99
67186;HTU21D;54116;53.518;49.398;2023-09-19T11:59:38;-1.55;118.99
67186;HTU21D;54116;53.518;49.398;2023-09-19T12:02:08;-1.55;118.99
67186;HTU21D;54116;53.518;49.398;2023-09-19T12:04:42;-1.36;118.99
67186;HTU21D;54116;53.518;49.398;2023-09-19T12:07:11;-1.40;118.99
67186;HTU21D;54116;53.518;49.398;2023-09-19T12:09:48;-1.52;118.99
67186;HTU21D;54116;53.518;49.398;2023-09-19T12:12:28;-1.60;118.99
67186;HTU21D;54116;53.518;49.398;2023-09-19T12:15:00;-1.56;118.99
67186;HTU21D;54116;53.518;49.398;2023-09-19T12:17:40;-1.47;118.99
67186;HTU21D;54116;53.518;49.398;2023-09-19T12:20:09;-1.47;118.99
67186;HTU21D;54116;53.518;49.398;2023-09-19T12:22:42;-1.47;118.99
67186;HTU21D;54116;53.518;49.398;2023-09-19T12:25:10;-1.57;118.99
67186;HTU21D;54116;53.518;49.398;2023-09-19T12:27:51;-1.54;118.99
67186;HTU21D;54116;53.518;49.398;2023-09-19T12:30:30;-1.56;118.99
67186;HTU21D;54116;53.518;49.398;2023-09-19T12:33:05;-1.71;118.99
67186;HTU21D;54116;53.518;49.398;2023-09-19T12:35:37;-1.74;118.99
67186;HTU21D;54116;53.518;49.398;2023-09-19T12:38:25;-1.78;118.99
67186;HTU21D;54116;53.518;49.398;2023-09-19T12:40:57;-1.56;118.99
67186;HTU21D;54116;53.518;49.398;2023-09-19T12:43:26;-1.55;118.99
67186;HTU21D;54116;53.518;49.398;2023-09-19T12:46:13;-1.70;118.99
67186;HTU21D;54116;53.518;49.398;2023-09-19T12:48:42;-1.65;118.99
67186;HTU21D;54116;53.518;49.398;2023-09-19T12:51:16;-1.68;118.99
67186;HTU21D;54116;53.518;49.398;2023-09-19T12:53:57;-1.84;118.99
67186;HTU21D;54116;53.518;49.398;2023-09-19T12:56:24;-1.85;118.99
67186;HTU21D;54116;53.518;49.398;2023-09-19T12:58:54;17.67;118.99
67186;HTU21D;54116;53.518;49.398;2023-09-19T13:01:29;17.63;118.99
67186;HTU21D;54116;53.518;49.398;2023-09-19T13:04:21;17.51;51.88
67186;HTU21D;54116;53.518;49.398;2023-09-19T13:06:58;17.43;51.98
67186;HTU21D;54116;53.518;49.398;2023-09-19T13:09:29;17.41;64.44
67186;HTU21D;54116;53.518;49.398;2023-09-19T13:12:04;17.50;53.00
67186;HTU21D;54116;53.518;49.398;2023-09-19T13:14:40;17.63;52.49
67186;HTU21D;54116;53.518;49.398;2023-09-19T13:17:10;17.55;115.19
67186;HTU21D;54116;53.518;49.398;2023-09-19T13:19:53;0.53;118.99
67186;HTU21D;54116;53.518;49.398;2023-09-19T13:22:40;-2.14;118.99
67186;HTU21D;54116;53.518;49.398;2023-09-19T13:25:16;-2.15;118.99
67186;HTU21D;54116;53.518;49.398;2023-09-19T13:27:47;-2.10;118.99
67186;HTU21D;54116;53.518;49.398;2023-09-19T13:30:26;-2.28;118.99
67186;HTU21D;54116;53.518;49.398;2023-09-19T13:33:12;16.77;118.99
67186;HTU21D;54116;53.518;49.398;2023-09-19T13:35:47;16.61;118.99
67186;HTU21D;54116;53.518;49.398;2023-09-19T13:38:14;-2.28;118.99
67186;HTU21D;54116;53.518;49.398;2023-09-19T13:40:41;-2.44;118.99
67186;HTU21D;54116;53.518;49.398;2023-09-19T13:43:10;-2.53;118.99
67186;HTU21D;54116;53.518;49.398;2023-09-19T13:45:41;-2.56;118.99
67186;HTU21D;54116;53.518;49.398;2023-09-19T13:48:10;-2.65;118.99
67186;HTU21D;54116;53.518;49.398;2023-09-19T13:50:42;-2.65;118.99
67186;HTU21D;54116;53.518;49.398;2023-09-19T13:53:09;-2.74;118.99
67186;HTU21D;54116;53.518;49.398;2023-09-19T13:55:39;-2.82;118.99
67186;HTU21D;54116;53.518;49.398;2023-09-19T13:58:06;-2.79;118.99
67186;HTU21D;54116;53.518;49.398;2023-09-19T14:00:34;-2.84;118.99
67186;HTU21D;54116;53.518;49.398;2023-09-19T14:03:01;-2.96;118.99
67186;HTU21D;54116;53.518;49.398;2023-09-19T14:05:27;-3.01;118.99
67186;HTU21D;54116;53.518;49.398;2023-09-19T14:07:57;-3.07;118.99
67186;HTU21D;54116;53.518;49.398;2023-09-19T14:10:31;-3.13;118.99
67186;HTU21D;54116;53.518;49.398;2023-09-19T14:13:01;-3.21;118.99
67186;HTU21D;54116;53.518;49.398;2023-09-19T14:15:42;-3.25;118.99
67186;HTU21D;54116;53.518;49.398;2023-09-19T14:18:09;-3.32;118.99
67186;HTU21D;54116;53.518;49.398;2023-09-19T14:20:38;-3.40;118.99
67186;HTU21D;54116;53.518;49.398;2023-09-19T14:23:21;-3.47;118.99
67186;HTU21D;54116;53.518;49.398;2023-09-19T14:25:53;-3.53;118.99
67186;HTU21D;54116;53.518;49.398;2023-09-19T14:28:20;-3.56;118.99
67186;HTU21D;54116;53.518;49.398;2023-09-19T14:30:49;-3.58;118.99
67186;HTU21D;54116;53.518;49.398;2023-09-19T14:33:16;-3.66;118.99
67186;HTU21D;54116;53.518;49.398;2023-09-19T14:35:42;-3.72;118.99
67186;HTU21D;54116;53.518;49.398;2023-09-19T14:38:09;-3.78;118.99
67186;HTU21D;54116;53.518;49.398;2023-09-19T14:40:35;-3.83;118.99
67186;HTU21D;54116;53.518;49.398;2023-09-19T14:43:03;-3.86;118.99
67186;HTU21D;54116;53.518;49.398;2023-09-19T14:45:32;-3.90;118.99
67186;HTU21D;54116;53.518;49.398;2023-09-19T14:47:58;-3.96;118.99
67186;HTU21D;54116;53.518;49.398;2023-09-19T14:50:24;-3.93;118.99
67186;HTU21D;54116;53.518;49.398;2023-09-19T14:52:52;-3.95;118.99
67186;HTU21D;54116;53.518;49.398;2023-09-19T14:55:20;-4.02;118.99
67186;HTU21D;54116;53.518;49.398;2023-09-19T14:57:49;-4.21;118.99
67186;HTU21D;54116;53.518;49.398;2023-09-19T15:00:20;-4.29;118.99
67186;HTU21D;54116;53.518;49.398;2023-09-19T15:02:49;-4.31;118.99
67186;HTU21D;54116;53.518;49.398;2023-09-19T15:05:19;-4.42;118.99
67186;HTU21D;54116;53.518;49.398;2023-09-19T15:07:47;-4.48;118.99
67186;HTU21D;54116;53.518;49.398;2023-09-19T15:10:13;-4.57;118.99
67186;HTU21D;54116;53.518;49.398;2023-09-19T15:12:39;-4.64;118.99
67186;HTU21D;54116;53.518;49.398;2023-09-19T15:15:06;-4.76;118.99
67186;HTU21D;54116;53.518;49.398;2023-09-19T15:17:36;-4.91;118.99
67186;HTU21D;54116;53.518;49.398;2023-09-19T15:20:03;-4.94;118.99
67186;HTU21D;54116;53.518;49.398;2023-09-19T15:22:30;-5.00;118.99
67186;HTU21D;54116;53.518;49.398;2023-09-19T15:24:58;-5.04;118.99
67186;HTU21D;54116;53.518;49.398;2023-09-19T15:27:24;-5.07;118.99
67186;HTU21D;54116;53.518;49.398;2023-09-19T15:29:50;-5.13;118.99
67186;HTU21D;54116;53.518;49.398;2023-09-19T15:32:16;-5.19;118.99
67186;HTU21D;54116;53.518;49.398;2023-09-19T15:34:43;-5.22;118.99
67186;HTU21D;54116;53.518;49.398;2023-09-19T15:37:10;-5.31;118.99
67186;HTU21D;54116;53.518;49.398;2023-09-19T15:39:36;-5.42;118.99
67186;HTU21D;54116;53.518;49.398;2023-09-19T15:42:05;-5.54;118.99
67186;HTU21D;54116;53.518;49.398;2023-09-19T15:44:32;-5.56;118.99
67186;HTU21D;54116;53.518;49.398;2023-09-19T15:47:00;-5.62;118.99
67186;HTU21D;54116;53.518;49.398;2023-09-19T15:49:26;-5.65;118.99
67186;HTU21D;54116;53.518;49.398;2023-09-19T15:51:53;-5.77;118.99
67186;HTU21D;54116;53.518;49.398;2023-09-19T15:54:22;-5.81;118.99
67186;HTU21D;54116;53.518;49.398;2023-09-19T15:56:51;-5.78;118.99